Time;durP1;ratioP1;P1;durP2;ratioP2;P2;SDS_P1;SDS_P2;PMS_P1;PMS_P2;Temp;Humidity;BMP_temperature;BMP_pressure;BME280_temperature;BME280_humidity;BME280_pressure;Samples;Min_cycle;Max_cycle;Signal;HPM_P1;HPM_P2
2021/12/21 00:00:38;;;;;;;20.60;9.15;;;;;;;0.42;77.76;102591.56;3583338;40;20574;-64
2021/12/21 00:03:04;;;;;;;21.45;8.90;;;;;;;0.37;77.06;102591.50;3582588;40;20072;-65
2021/12/21 00:05:30;;;;;;;19.27;8.35;;;;;;;0.36;76.37;102581.81;3583494;40;20093;-64
2021/12/21 00:08:01;;;;;;;18.42;7.90;;;;;;;0.26;77.01;102568.50;3569656;40;20291;-64
2021/12/21 00:10:31;;;;;;;20.35;8.25;;;;;;;0.33;76.98;102586.19;3577907;40;20091;-64
2021/12/21 00:15:51;;;;;;;18.30;8.00;;;;;;;0.28;76.43;102577.31;3583062;40;20196;-64
2021/12/21 00:18:28;;;;;;;20.80;8.38;;;;;;;0.20;77.05;102564.03;3583822;40;20059;-64
2021/12/21 00:25:55;;;;;;;19.35;8.52;;;;;;;0.21;76.51;102584.31;3584349;40;20072;-64
2021/12/21 00:28:20;;;;;;;19.83;8.10;;;;;;;0.08;76.38;102555.97;3583262;40;20391;-64
2021/12/21 00:30:46;;;;;;;18.92;8.75;;;;;;;0.19;75.83;102576.38;3583288;40;20052;-64
2021/12/21 00:33:11;;;;;;;14.38;8.07;;;;;;;0.14;76.82;102575.44;3582997;40;20055;-64
2021/12/21 00:35:37;;;;;;;19.17;8.07;;;;;;;0.12;75.85;102579.81;3582476;40;20056;-64
2021/12/21 00:38:04;;;;;;;19.08;8.43;;;;;;;0.08;76.84;102566.56;3583729;40;20052;-64
2021/12/21 00:40:31;;;;;;;21.00;8.68;;;;;;;0.06;76.41;102571.81;3578019;40;20065;-64
2021/12/21 00:42:57;;;;;;;22.52;9.02;;;;;;;0.04;75.81;102568.28;3575849;40;20490;-64
2021/12/21 00:45:23;;;;;;;20.60;8.50;;;;;;;0.04;76.53;102568.28;3579312;40;20071;-64
2021/12/21 00:47:50;;;;;;;23.40;8.60;;;;;;;-0.04;75.83;102554.09;3580961;40;20319;-64
2021/12/21 00:50:19;;;;;;;22.77;8.90;;;;;;;-0.21;76.60;102521.34;3571607;40;20374;-65
2021/12/21 00:52:50;;;;;;;24.08;8.90;;;;;;;-0.26;75.69;102522.16;3581632;40;20126;-64
2021/12/21 00:55:17;;;;;;;13.15;7.43;;;;;;;-0.04;75.41;102559.38;3574768;40;20048;-64
2021/12/21 00:57:43;;;;;;;21.02;8.70;;;;;;;-0.25;75.43;102529.25;3578983;40;20141;-64
2021/12/21 01:00:13;;;;;;;16.50;8.05;;;;;;;-0.81;76.40;102431.78;3583421;40;20056;-64
2021/12/21 01:02:41;;;;;;;19.38;8.68;;;;;;;-0.07;76.88;102562.00;3575328;40;20053;-64
2021/12/21 01:05:17;;;;;;;19.40;8.65;;;;;;;-0.08;77.48;102561.13;3578955;40;20063;-64
2021/12/21 01:07:46;;;;;;;26.20;10.05;;;;;;;-0.10;76.13;102556.69;3582808;40;20383;-68
2021/12/21 01:10:47;;;;;;;21.63;9.40;;;;;;;-0.11;76.52;102557.56;3577571;40;20122;-64
2021/12/21 01:13:26;;;;;;;19.90;8.88;;;;;;;-0.14;77.47;102563.69;3575574;40;20056;-64
2021/12/21 01:18:25;;;;;;;23.13;9.18;;;;;;;-0.40;76.12;102520.25;3577987;40;20048;-64
2021/12/21 01:21:06;;;;;;;18.92;9.07;;;;;;;-0.19;76.81;102559.22;3578346;40;20057;-64
2021/12/21 01:26:09;;;;;;;17.40;8.90;;;;;;;-0.36;77.22;102541.44;3579689;40;20375;-65
2021/12/21 01:28:46;;;;;;;22.20;8.75;;;;;;;-0.27;77.24;102562.69;3577559;40;20067;-64
2021/12/21 01:31:24;;;;;;;20.20;8.02;;;;;;;-0.33;77.47;102541.47;3577023;40;20372;-64
2021/12/21 01:39:47;;;;;;;23.83;9.98;;;;;;;-0.33;77.21;102549.41;3576265;40;20057;-64
2021/12/21 01:50:21;;;;;;;;;;;;;;;-0.43;76.26;102544.88;3577172;40;20070;-64
2021/12/21 01:52:46;;;;;;;21.13;9.07;;;;;;;-0.54;76.58;102531.56;3575194;40;19944;-64
2021/12/21 01:55:13;;;;;;;19.50;8.95;;;;;;;-0.54;76.54;102533.31;3576333;40;20059;-64
2021/12/21 01:57:38;;;;;;;21.27;9.15;;;;;;;-0.55;77.05;102532.41;3575404;40;20543;-64
2021/12/21 02:00:08;;;;;;;27.17;9.55;;;;;;;-0.54;76.20;102536.84;3574899;40;20132;-64
2021/12/21 02:02:34;;;;;;;19.70;8.75;;;;;;;-0.55;75.99;102534.19;3577593;40;20056;-64
2021/12/21 02:07:47;;;;;;;26.20;9.32;;;;;;;-0.52;77.10;102539.50;3579653;40;20056;-65
2021/12/21 02:10:13;;;;;;;24.45;9.77;;;;;;;-0.51;76.91;102531.59;3582828;40;20040;-65
2021/12/21 02:12:38;;;;;;;21.67;9.40;;;;;;;-0.53;77.41;102525.41;3579220;40;20371;-65
2021/12/21 02:15:05;;;;;;;22.92;9.75;;;;;;;-0.61;76.39;102512.97;3582558;40;20059;-65
2021/12/21 02:18:04;;;;;;;21.67;9.95;;;;;;;-0.65;76.30;102517.34;3581864;40;20056;-65
2021/12/21 02:20:41;;;;;;;25.58;9.77;;;;;;;-0.75;76.62;102489.94;3580746;40;20088;-65
2021/12/21 02:23:19;;;;;;;22.67;9.52;;;;;;;-0.56;77.31;102524.50;3580240;40;20322;-63
2021/12/21 02:30:54;;;;;;;27.17;11.18;;;;;;;-0.58;76.23;102528.88;3582164;40;20044;-64
2021/12/21 02:33:23;;;;;;;36.17;15.80;;;;;;;-0.60;75.63;102527.94;3580981;40;20118;-64
2021/12/21 02:35:49;;;;;;;30.15;13.93;;;;;;;-0.86;76.26;102488.03;3579608;40;20151;-64
2021/12/21 02:38:15;;;;;;;27.05;12.77;;;;;;;-0.64;76.76;102523.50;3582703;40;20044;-63
2021/12/21 02:40:41;;;;;;;27.98;11.38;;;;;;;-0.68;76.46;102516.44;3582255;40;20144;-64
2021/12/21 02:43:10;;;;;;;22.30;10.32;;;;;;;-0.69;75.96;102520.81;3580432;40;20056;-64
2021/12/21 02:45:38;;;;;;;29.50;10.77;;;;;;;-0.68;76.37;102517.31;3581850;40;20307;-64
2021/12/21 02:48:05;;;;;;;22.33;9.75;;;;;;;-0.69;76.18;102525.22;3580261;40;20133;-64
2021/12/21 02:50:31;;;;;;;29.15;10.05;;;;;;;-0.69;75.87;102526.09;3581562;40;20052;-64
2021/12/21 02:52:59;;;;;;;20.10;9.32;;;;;;;-0.70;75.61;102519.03;3579478;40;20060;-64
2021/12/21 02:55:26;;;;;;;22.67;9.80;;;;;;;-0.71;75.42;102518.16;3582297;40;20457;-67
2021/12/21 02:57:52;;;;;;;21.38;9.30;;;;;;;-0.92;75.85;102486.19;3580801;40;20056;-64
2021/12/21 03:00:19;;;;;;;20.02;9.80;;;;;;;-0.75;75.78;102508.44;3580005;40;20399;-65
2021/12/21 03:02:45;;;;;;;23.45;9.93;;;;;;;-0.81;76.80;102508.34;3579145;40;20408;-64
2021/12/21 03:05:11;;;;;;;22.48;9.80;;;;;;;-0.79;76.43;102519.84;3581455;40;20156;-64
2021/12/21 03:10:24;;;;;;;27.02;10.20;;;;;;;-0.90;75.99;102499.44;3582471;40;20055;-64
2021/12/21 03:15:22;;;;;;;24.98;8.98;;;;;;;-0.83;75.33;102518.00;3581860;40;20121;-64
2021/12/21 03:17:51;;;;;;;24.40;9.60;;;;;;;-0.83;75.82;102522.41;3578413;40;20052;-64
2021/12/21 03:20:18;;;;;;;19.80;9.50;;;;;;;-0.91;75.76;102500.31;3581808;40;20061;-64
2021/12/21 03:22:45;;;;;;;25.67;10.32;;;;;;;-0.85;75.34;102513.59;3581736;40;20431;-64
2021/12/21 03:25:11;;;;;;;24.88;9.85;;;;;;;-0.91;75.86;102501.19;3582067;40;20058;-64
2021/12/21 03:27:36;;;;;;;25.98;11.10;;;;;;;-0.87;75.29;102505.63;3580981;40;20088;-65
2021/12/21 03:30:06;;;;;;;22.23;9.90;;;;;;;-1.31;74.97;102439.97;3582223;40;20075;-65
2021/12/21 03:32:32;;;;;;;25.27;10.75;;;;;;;-0.90;75.35;102510.88;3581382;40;20056;-65
2021/12/21 03:34:58;;;;;;;28.63;11.13;;;;;;;-1.13;75.46;102470.13;3582157;40;20063;-64
2021/12/21 03:37:23;;;;;;;26.23;10.00;;;;;;;-1.08;75.71;102482.50;3578634;40;20442;-65
2021/12/21 03:39:52;;;;;;;21.55;9.73;;;;;;;-0.92;75.14;102502.03;3581421;40;20319;-64
2021/12/21 03:42:19;;;;;;;28.58;10.30;;;;;;;-0.94;76.22;102498.53;3582134;40;20044;-64
2021/12/21 03:44:44;;;;;;;19.45;10.00;;;;;;;-0.95;75.05;102502.91;3582844;40;20133;-64
2021/12/21 03:47:12;;;;;;;22.30;10.45;;;;;;;-0.97;75.08;102494.06;3576646;40;20049;-65
2021/12/21 03:52:19;;;;;;;24.27;9.85;;;;;;;-1.20;75.14;102458.59;3581785;40;20450;-64
2021/12/21 03:54:50;;;;;;;24.38;10.40;;;;;;;-1.01;75.58;102494.03;3581740;40;20059;-64
2021/12/21 03:57:18;;;;;;;23.95;10.55;;;;;;;-1.11;76.15;102490.41;3581976;40;20059;-64
2021/12/21 03:59:45;;;;;;;25.15;10.43;;;;;;;-1.52;76.42;102413.31;3581867;40;20056;-64
2021/12/21 04:02:13;;;;;;;24.23;10.65;;;;;;;-1.09;76.49;102479.84;3583254;40;20401;-64
2021/12/21 04:04:41;;;;;;;27.42;10.63;;;;;;;-1.01;76.69;102486.13;3582853;40;20058;-64
2021/12/21 04:07:07;;;;;;;23.95;10.50;;;;;;;-0.99;76.70;102497.56;3583301;40;20048;-64
2021/12/21 04:09:33;;;;;;;22.83;10.07;;;;;;;-1.02;75.97;102495.75;3583344;40;20142;-64
2021/12/21 04:12:00;;;;;;;23.23;9.50;;;;;;;-1.02;76.09;102494.88;3582924;40;20497;-64
2021/12/21 04:14:31;;;;;;;27.63;11.07;;;;;;;-1.04;76.62;102486.06;3573833;40;20393;-64
2021/12/21 04:16:57;;;;;;;24.90;9.68;;;;;;;-1.04;75.83;102496.63;3571651;40;20100;-64
2021/12/21 04:19:24;;;;;;;26.88;11.48;;;;;;;-1.07;75.92;102493.94;3578295;40;20064;-65
2021/12/21 04:21:50;;;;;;;23.38;10.20;;;;;;;-1.22;76.37;102466.50;3582394;40;20059;-64
2021/12/21 04:24:15;;;;;;;25.10;9.95;;;;;;;-1.08;75.89;102494.78;3583901;40;20044;-64
2021/12/21 04:26:42;;;;;;;26.25;10.57;;;;;;;-1.33;76.44;102449.66;3583717;40;20071;-64
2021/12/21 04:29:07;;;;;;;22.88;10.27;;;;;;;-1.09;76.20;102493.03;3584876;40;20076;-65
2021/12/21 04:31:33;;;;;;;25.55;9.82;;;;;;;-1.11;75.65;102487.75;3585085;40;20048;-64
2021/12/21 04:33:59;;;;;;;27.17;9.63;;;;;;;-1.10;75.23;102489.50;3584248;40;20063;-65
2021/12/21 04:36:26;;;;;;;24.73;10.93;;;;;;;-1.10;75.06;102493.91;3585726;40;20437;-65
2021/12/21 04:38:53;;;;;;;29.90;12.38;;;;;;;-1.11;76.16;102489.47;3586012;40;20064;-65
2021/12/21 04:41:24;;;;;;;29.85;12.13;;;;;;;-1.13;75.69;102491.22;3583077;40;20057;-64
2021/12/21 04:43:53;;;;;;;27.33;10.80;;;;;;;-1.15;75.92;102485.91;3580548;40;20048;-64
2021/12/21 04:46:20;;;;;;;28.70;11.90;;;;;;;-1.19;75.50;102482.34;3580885;40;20052;-64
2021/12/21 04:48:47;;;;;;;29.95;10.68;;;;;;;-1.35;75.91;102455.75;3583533;40;20056;-64
2021/12/21 04:51:13;;;;;;;25.05;11.05;;;;;;;-1.49;76.11;102429.19;3582190;40;20091;-64
2021/12/21 04:53:39;;;;;;;25.20;10.65;;;;;;;-1.20;75.55;102485.88;3583093;40;20068;-65
2021/12/21 04:56:06;;;;;;;28.58;10.55;;;;;;;-1.29;75.10;102469.91;3583319;40;20195;-64
2021/12/21 04:58:32;;;;;;;24.65;10.18;;;;;;;-2.08;75.64;102342.25;3583271;40;20048;-65
2021/12/21 05:00:58;;;;;;;23.92;10.65;;;;;;;-1.38;75.66;102458.34;3580698;40;20056;-65
2021/12/21 05:03:24;;;;;;;30.95;11.13;;;;;;;-1.26;75.18;102475.22;3582163;40;20398;-66
2021/12/21 05:05:51;;;;;;;22.08;10.15;;;;;;;-1.23;75.79;102483.19;3579873;40;20076;-64
2021/12/21 05:08:23;;;;;;;24.45;10.05;;;;;;;-1.23;74.53;102483.19;3579244;40;20068;-64
2021/12/21 05:10:56;;;;;;;24.25;10.98;;;;;;;-1.25;75.75;102486.66;3583214;40;20040;-65
2021/12/21 05:13:27;;;;;;;24.10;10.73;;;;;;;-1.27;75.59;102488.38;3577536;40;20403;-66
2021/12/21 05:15:53;;;;;;;26.75;10.35;;;;;;;-1.28;75.18;102492.78;3582133;40;20282;-65
2021/12/21 05:18:20;;;;;;;23.52;9.98;;;;;;;-1.31;74.70;102487.47;3579187;40;20417;-65
2021/12/21 05:20:46;;;;;;;20.20;10.23;;;;;;;-1.42;74.90;102467.97;3579035;40;20138;-65
2021/12/21 05:23:12;;;;;;;22.15;10.10;;;;;;;-1.35;74.59;102485.66;3580952;40;20062;-65
2021/12/21 05:25:39;;;;;;;24.73;10.55;;;;;;;-1.36;74.45;102493.53;3580305;40;20080;-65
2021/12/21 05:28:09;;;;;;;26.48;10.20;;;;;;;-1.38;75.18;102490.88;3583579;40;20052;-65
2021/12/21 05:30:35;;;;;;;31.40;10.25;;;;;;;-1.39;75.64;102482.97;3582816;40;20072;-64
2021/12/21 05:33:03;;;;;;;24.48;10.27;;;;;;;-1.40;74.32;102487.34;3583328;40;20394;-64
2021/12/21 05:35:30;;;;;;;22.40;10.90;;;;;;;-1.69;74.93;102437.69;3580787;40;20142;-65
2021/12/21 05:38:00;;;;;;;25.83;10.65;;;;;;;-1.59;75.51;102454.53;3581970;40;20058;-65
2021/12/21 05:40:33;;;;;;;25.13;10.32;;;;;;;-1.43;75.76;102488.19;3570428;40;20114;-65
2021/12/21 05:42:59;;;;;;;25.83;10.93;;;;;;;-1.43;75.00;102484.66;3581417;40;20055;-65
2021/12/21 05:45:25;;;;;;;23.88;10.20;;;;;;;-1.43;75.38;102487.28;3580592;40;20056;-65
2021/12/21 05:47:51;;;;;;;21.48;10.35;;;;;;;-1.44;75.11;102482.88;3581064;40;20070;-66
2021/12/21 05:50:19;;;;;;;24.27;10.30;;;;;;;-1.47;75.07;102480.19;3582813;40;20298;-65
2021/12/21 05:52:46;;;;;;;25.17;11.27;;;;;;;-1.48;76.34;102492.50;3580638;40;20149;-65
2021/12/21 05:55:14;;;;;;;25.92;10.98;;;;;;;-1.46;76.14;102492.50;3580008;40;20644;-65
2021/12/21 05:57:40;;;;;;;22.15;10.43;;;;;;;-1.47;75.75;102490.75;3581495;40;20075;-64
2021/12/21 06:00:11;;;;;;;22.75;10.98;;;;;;;-1.45;76.53;102491.66;3582833;40;20532;-66
2021/12/21 06:02:37;;;;;;;22.42;10.90;;;;;;;-1.47;76.24;102490.75;3578141;40;20329;-65
2021/12/21 06:05:04;;;;;;;24.63;10.75;;;;;;;-1.47;76.21;102481.09;3579344;40;20052;-65
2021/12/21 06:07:31;;;;;;;27.13;10.93;;;;;;;-1.49;75.86;102477.56;3579898;40;20062;-65
2021/12/21 06:09:57;;;;;;;25.05;10.77;;;;;;;-1.50;75.74;102488.94;3581030;40;20291;-65
2021/12/21 06:23:08;;;;;;;30.63;11.90;;;;;;;-1.51;76.58;102495.09;3581644;40;20088;-65
2021/12/21 06:28:03;;;;;;;26.73;11.70;;;;;;;-1.52;76.60;102489.78;3582381;40;20048;-65
2021/12/21 06:30:29;;;;;;;27.67;11.45;;;;;;;-1.53;76.02;102486.25;3580059;40;20473;-65
2021/12/21 06:32:56;;;;;;;27.15;11.52;;;;;;;-1.54;75.01;102487.13;3581752;40;20052;-65
2021/12/21 06:35:22;;;;;;;24.15;11.18;;;;;;;-1.53;76.08;102486.25;3576522;40;20059;-66
2021/12/21 06:37:48;;;;;;;21.35;10.43;;;;;;;-1.53;75.47;102481.00;3581229;40;20068;-66
2021/12/21 06:40:13;;;;;;;26.40;11.10;;;;;;;-1.52;74.86;102484.50;3579241;40;20616;-65
2021/12/21 06:42:43;;;;;;;23.60;11.50;;;;;;;-1.53;74.76;102482.75;3582077;40;20157;-66
2021/12/21 06:45:25;;;;;;;23.45;11.32;;;;;;;-1.54;75.11;102488.91;3579790;40;20055;-65
2021/12/21 06:53:19;;;;;;;21.58;10.90;;;;;;;-1.55;76.26;102488.00;3583023;40;20090;-65
2021/12/21 06:55:45;;;;;;;28.73;12.07;;;;;;;-1.57;76.29;102494.13;3583756;40;20415;-65
2021/12/21 06:58:10;;;;;;;27.40;11.48;;;;;;;-1.60;75.01;102492.31;3581088;40;20060;-65
2021/12/21 07:00:36;;;;;;;25.48;10.35;;;;;;;-2.14;74.65;102401.00;3581144;40;20061;-65
2021/12/21 07:03:02;;;;;;;23.90;11.02;;;;;;;-1.61;75.78;102492.31;3581753;40;20056;-66
2021/12/21 07:05:28;;;;;;;25.88;11.63;;;;;;;-1.63;75.04;102493.16;3571773;40;20279;-65
2021/12/21 07:07:55;;;;;;;23.50;11.25;;;;;;;-1.64;75.05;102499.31;3581776;40;20115;-65
2021/12/21 07:10:25;;;;;;;24.90;12.15;;;;;;;-1.64;75.14;102499.31;3579122;40;20421;-65
2021/12/21 07:20:33;;;;;;;28.98;11.07;;;;;;;-1.63;76.00;102506.34;3582549;40;20052;-65
2021/12/21 07:22:58;;;;;;;26.45;11.05;;;;;;;-1.65;75.56;102508.09;3581647;40;20071;-65
2021/12/21 07:25:25;;;;;;;23.65;10.93;;;;;;;-1.67;75.33;102504.53;3581405;40;20059;-65
2021/12/21 07:27:52;;;;;;;27.40;12.43;;;;;;;-1.79;75.38;102477.09;3581042;40;20064;-65
2021/12/21 07:30:18;;;;;;;25.92;11.13;;;;;;;-1.64;76.56;102499.31;3578691;40;20056;-65
2021/12/21 07:32:44;;;;;;;26.80;11.43;;;;;;;-1.60;76.02;102499.34;3578005;40;20075;-65
2021/12/21 07:35:09;;;;;;;28.13;12.40;;;;;;;-1.68;77.05;102486.94;3581653;40;20060;-66
2021/12/21 07:37:35;;;;;;;25.38;11.65;;;;;;;-1.80;76.40;102460.38;3583239;40;20060;-66
2021/12/21 07:40:07;;;;;;;32.28;11.35;;;;;;;-1.56;75.62;102501.16;3584010;40;20056;-65
2021/12/21 07:42:34;;;;;;;22.27;11.02;;;;;;;-1.64;76.28;102498.41;3583178;40;20545;-66
2021/12/21 07:44:59;;;;;;;25.83;11.30;;;;;;;-1.55;75.89;102513.50;3580449;40;20060;-65
2021/12/21 07:47:25;;;;;;;23.63;10.60;;;;;;;-1.55;74.77;102508.22;3582920;40;20441;-66
2021/12/21 07:49:51;;;;;;;23.10;10.82;;;;;;;-1.56;74.63;102506.44;3583229;40;20082;-65
2021/12/21 07:52:18;;;;;;;26.25;10.85;;;;;;;-1.58;75.64;102516.09;3580151;40;20534;-66
2021/12/21 07:54:45;;;;;;;24.90;11.52;;;;;;;-1.67;74.69;102493.97;3583246;40;20059;-65
2021/12/21 07:57:11;;;;;;;24.90;11.73;;;;;;;-1.67;74.81;102495.72;3583150;40;20058;-65
2021/12/21 07:59:39;;;;;;;23.35;10.60;;;;;;;-1.58;75.46;102514.34;3583390;40;20052;-66
2021/12/21 08:02:06;;;;;;;29.77;11.25;;;;;;;-1.61;75.05;102518.69;3581010;40;20044;-65
2021/12/21 08:04:34;;;;;;;23.80;11.38;;;;;;;-1.71;75.71;102497.44;3616087;22;20156;-65
2021/12/21 08:07:07;;;;;;;27.10;11.65;;;;;;;-1.52;75.75;102518.78;3578536;40;20056;-65
2021/12/21 08:09:41;;;;;;;23.33;11.18;;;;;;;-1.51;75.90;102518.84;3575137;40;20075;-66
2021/12/21 08:14:35;;;;;;;30.02;11.65;;;;;;;-1.48;75.74;102526.78;3575345;40;19949;-65
2021/12/21 08:17:01;;;;;;;24.45;11.35;;;;;;;-1.47;75.97;102517.13;3570196;40;20311;-65
2021/12/21 08:19:27;;;;;;;26.85;12.30;;;;;;;-1.39;76.67;102518.13;3568525;40;20064;-66
2021/12/21 08:21:52;;;;;;;21.67;10.82;;;;;;;-1.36;75.06;102519.91;3569737;40;20668;-65
2021/12/21 08:24:18;;;;;;;22.05;11.05;;;;;;;-1.33;75.32;102523.50;3575738;40;20058;-65
2021/12/21 08:26:43;;;;;;;23.92;11.90;;;;;;;-1.34;75.00;102512.91;3568173;40;20113;-65
2021/12/21 08:29:09;;;;;;;21.20;10.85;;;;;;;-1.26;74.94;102521.84;3573188;40;20072;-65
2021/12/21 08:31:35;;;;;;;27.75;12.27;;;;;;;-1.26;74.69;102517.44;3572310;40;20428;-65
2021/12/21 08:34:00;;;;;;;25.75;11.95;;;;;;;-1.25;75.22;102513.94;3573818;40;20059;-65
2021/12/21 08:36:26;;;;;;;26.85;12.02;;;;;;;-1.22;75.01;102518.38;3571610;40;20069;-66
2021/12/21 08:38:52;;;;;;;22.38;11.40;;;;;;;-1.22;74.54;102513.09;3573907;40;20071;-66
2021/12/21 08:41:20;;;;;;;32.65;11.80;;;;;;;-1.19;75.43;102518.41;3573700;40;20052;-66
2021/12/21 08:43:46;;;;;;;25.92;12.05;;;;;;;-1.56;74.68;102448.44;3572034;40;20052;-66
2021/12/21 08:46:11;;;;;;;26.75;12.65;;;;;;;-1.14;75.37;102510.53;3574625;40;20057;-66
2021/12/21 08:48:37;;;;;;;30.58;13.30;;;;;;;-1.13;74.81;102517.63;3573404;40;20587;-66
2021/12/21 08:51:05;;;;;;;27.58;14.10;;;;;;;-1.08;76.26;102522.09;3571967;40;20063;-65
2021/12/21 08:53:32;;;;;;;30.27;13.05;;;;;;;-1.03;76.54;102524.78;3555192;40;20049;-66
2021/12/21 08:55:58;;;;;;;32.75;13.45;;;;;;;-0.97;76.48;102522.22;3573500;40;20061;-65
2021/12/21 08:58:24;;;;;;;24.13;12.90;;;;;;;-0.90;76.13;102520.56;3574031;40;20057;-65
2021/12/21 09:00:52;;;;;;;29.00;13.02;;;;;;;-0.88;75.67;102522.34;3573096;40;20053;-66
2021/12/21 09:03:20;;;;;;;26.30;12.68;;;;;;;-0.81;75.31;102523.31;3571128;40;20150;-66
2021/12/21 09:05:46;;;;;;;26.65;13.07;;;;;;;-0.75;75.68;102526.91;3573764;40;20394;-66
2021/12/21 09:08:12;;;;;;;24.55;12.88;;;;;;;-0.84;76.71;102510.06;3572766;40;20060;-65
2021/12/21 09:10:40;;;;;;;29.90;12.98;;;;;;;-0.63;76.47;102535.88;3570078;40;20061;-65
2021/12/21 09:13:09;;;;;;;28.58;13.68;;;;;;;-0.58;76.35;102537.66;3573788;40;20061;-66
2021/12/21 09:15:36;;;;;;;26.77;13.07;;;;;;;-0.65;76.06;102513.81;3574890;40;20048;-65
2021/12/21 09:18:02;;;;;;;29.17;13.90;;;;;;;-0.53;76.38;102520.13;3572385;40;20045;-65
2021/12/21 09:20:30;;;;;;;26.95;13.13;;;;;;;-0.64;76.31;102491.81;3573541;40;20076;-66
2021/12/21 09:22:57;;;;;;;25.90;14.05;;;;;;;-0.36;76.14;102533.50;3571540;40;20077;-67
2021/12/21 09:25:24;;;;;;;26.73;14.15;;;;;;;-0.31;76.03;102539.75;3572314;40;20062;-66
2021/12/21 09:27:51;;;;;;;24.05;12.85;;;;;;;-0.57;75.86;102483.09;3573502;40;20049;-67
2021/12/21 09:30:20;;;;;;;29.90;13.15;;;;;;;-0.24;76.42;102531.00;3576728;40;20295;-67
2021/12/21 09:32:46;;;;;;;26.48;12.57;;;;;;;-0.22;77.01;102532.75;3576267;40;20135;-65
2021/12/21 09:35:14;;;;;;;26.92;13.55;;;;;;;-0.16;77.00;102532.81;3574102;40;20053;-66
2021/12/21 09:37:40;;;;;;;24.42;13.23;;;;;;;-0.10;76.85;102527.59;3573709;40;20058;-67
2021/12/21 09:40:18;;;;;;;29.05;12.88;;;;;;;-0.06;76.24;102534.72;3575494;40;20065;-66
2021/12/21 09:42:44;;;;;;;28.15;12.98;;;;;;;-0.29;76.38;102484.25;3574125;40;20052;-66
2021/12/21 09:45:11;;;;;;;26.98;12.98;;;;;;;0.08;75.83;102535.72;3574385;40;20133;-66
2021/12/21 09:47:37;;;;;;;29.23;12.75;;;;;;;0.16;75.47;102530.47;3573907;40;20060;-67
2021/12/21 09:50:07;;;;;;;25.90;12.70;;;;;;;0.32;74.93;102521.81;3569599;40;20091;-66
2021/12/21 09:52:33;;;;;;;27.23;12.70;;;;;;;0.44;74.39;102526.28;3572979;40;20072;-66
2021/12/21 09:55:02;;;;;;;29.98;13.02;;;;;;;0.55;74.55;102524.63;3573254;40;20064;-66
2021/12/21 09:57:28;;;;;;;21.52;12.55;;;;;;;0.69;74.18;102512.34;3573493;40;20084;-66
2021/12/21 09:59:54;;;;;;;29.23;13.18;;;;;;;0.91;74.65;102523.06;3569998;40;20429;-66
2021/12/21 10:02:26;;;;;;;22.65;11.85;;;;;;;1.13;73.44;102522.31;3573370;40;20053;-65
2021/12/21 10:04:57;;;;;;;21.55;11.55;;;;;;;1.28;73.43;102507.38;3572281;40;20048;-67
2021/12/21 10:07:26;;;;;;;19.58;11.20;;;;;;;1.60;73.27;102510.13;3564234;40;20060;-67
2021/12/21 10:10:15;;;;;;;19.58;10.80;;;;;;;1.81;72.12;102503.97;3562660;40;20047;-66
2021/12/21 10:12:47;;;;;;;23.15;10.38;;;;;;;2.07;71.31;102501.34;3572860;40;20389;-66
2021/12/21 10:15:24;;;;;;;22.58;10.07;;;;;;;2.29;69.71;102502.22;3573801;40;20365;-65
2021/12/21 10:18:00;;;;;;;16.80;9.23;;;;;;;2.51;68.17;102501.31;3571517;40;20395;-65
2021/12/21 10:20:47;;;;;;;20.70;8.95;;;;;;;2.76;68.43;102514.56;3571233;40;20118;-65
2021/12/21 10:23:23;;;;;;;18.60;10.20;;;;;;;3.00;66.82;102509.16;3571347;40;20048;-65
2021/12/21 10:26:11;;;;;;;17.20;9.20;;;;;;;3.12;66.78;102508.22;3572858;40;20080;-66
2021/12/21 10:28:48;;;;;;;17.55;8.43;;;;;;;3.24;64.04;102497.56;3573025;40;20045;-66
2021/12/21 10:31:29;;;;;;;17.88;9.07;;;;;;;3.36;65.02;102496.63;3571193;40;20083;-65
2021/12/21 10:33:58;;;;;;;20.00;8.52;;;;;;;3.49;64.15;102481.47;3573243;40;20128;-64
2021/12/21 10:36:26;;;;;;;15.10;8.35;;;;;;;3.66;63.67;102492.88;3572547;40;20115;-66
2021/12/21 10:38:57;;;;;;;15.55;8.05;;;;;;;3.80;61.91;102487.47;3573141;40;20044;-65
2021/12/21 10:41:34;;;;;;;13.23;8.10;;;;;;;3.91;62.20;102474.97;3573080;40;20141;-65
2021/12/21 10:44:04;;;;;;;15.93;8.07;;;;;;;4.04;62.13;102480.22;3570053;40;20055;-66
2021/12/21 10:46:35;;;;;;;16.95;8.07;;;;;;;4.11;62.02;102482.78;3571744;40;20092;-66
2021/12/21 10:49:23;;;;;;;16.92;8.80;;;;;;;4.20;61.26;102473.84;3571707;40;20056;-66
2021/12/21 10:52:10;;;;;;;16.25;8.48;;;;;;;4.46;60.46;102472.72;3569614;40;20115;-66
2021/12/21 10:54:42;;;;;;;17.17;8.63;;;;;;;4.69;60.51;102475.16;3572741;40;20356;-66
2021/12/21 10:57:21;;;;;;;19.00;8.60;;;;;;;4.89;59.12;102482.03;3571167;40;20053;-66
2021/12/21 10:59:56;;;;;;;12.88;7.55;;;;;;;5.03;58.14;102464.97;3572092;40;20049;-66
2021/12/21 11:02:34;;;;;;;14.20;7.93;;;;;;;4.95;56.90;102442.88;3570556;40;20061;-66
2021/12/21 11:05:07;;;;;;;13.13;7.78;;;;;;;5.20;56.98;102459.44;3571306;40;20052;-65
2021/12/21 11:07:42;;;;;;;13.85;7.68;;;;;;;5.48;57.74;102471.47;3573227;40;20150;-66
2021/12/21 11:10:20;;;;;;;17.27;7.95;;;;;;;5.66;55.88;102475.66;3572114;40;20079;-66
2021/12/21 11:12:56;;;;;;;16.25;7.95;;;;;;;5.84;55.42;102471.84;3573371;40;20053;-67
2021/12/21 11:15:30;;;;;;;13.13;8.07;;;;;;;5.92;55.58;102463.72;3573696;40;20060;-66
2021/12/21 11:17:58;;;;;;;21.33;8.20;;;;;;;6.04;55.36;102466.22;3567545;40;20386;-66
2021/12/21 11:20:26;;;;;;;15.00;7.82;;;;;;;6.12;55.45;102467.00;3574412;40;20582;-66
2021/12/21 11:22:54;;;;;;;12.65;7.22;;;;;;;6.33;55.47;102462.16;3574614;40;20056;-66
2021/12/21 11:25:22;;;;;;;12.48;7.90;;;;;;;6.43;54.53;102461.97;3575937;40;20111;-66
2021/12/21 11:27:49;;;;;;;14.88;7.47;;;;;;;6.48;54.82;102443.19;3570985;40;20084;-66
2021/12/21 11:30:21;;;;;;;21.98;8.15;;;;;;;6.68;54.04;102454.38;3575143;40;20145;-65
2021/12/21 11:32:51;;;;;;;12.93;6.85;;;;;;;6.87;51.91;102454.88;3575131;40;20061;-65
2021/12/21 11:37:53;;;;;;;12.38;7.30;;;;;;;7.11;51.95;102434.78;3573564;40;20053;-66
2021/12/21 11:40:26;;;;;;;17.27;7.90;;;;;;;7.25;52.67;102423.78;3574990;40;20044;-66
2021/12/21 11:42:51;;;;;;;13.43;7.57;;;;;;;7.43;51.40;102409.13;3573964;40;20056;-66
2021/12/21 11:45:32;;;;;;;14.60;7.45;;;;;;;7.61;50.73;102408.69;3573841;40;20122;-67
2021/12/21 11:48:30;;;;;;;13.63;7.95;;;;;;;7.79;49.42;102411.81;3573678;40;20056;-65
2021/12/21 11:51:05;;;;;;;7.47;5.50;;;;;;;7.87;48.61;102420.56;3575499;40;20388;-65
2021/12/21 11:53:32;;;;;;;12.65;5.45;;;;;;;7.59;47.64;102375.72;3572222;40;20041;-66
2021/12/21 11:55:58;;;;;;;10.60;5.82;;;;;;;7.58;47.77;102351.66;3574762;40;20065;-66
2021/12/21 11:58:39;;;;;;;12.43;5.88;;;;;;;8.12;46.74;102402.94;3574201;40;20114;-66
2021/12/21 12:01:23;;;;;;;9.68;5.28;;;;;;;8.11;46.60;102389.56;3570562;40;20061;-66
2021/12/21 12:04:00;;;;;;;8.80;5.30;;;;;;;8.28;46.24;102411.44;3572500;40;20064;-66
2021/12/21 12:06:41;;;;;;;10.45;5.20;;;;;;;8.40;45.22;102407.56;3574327;40;20431;-66
2021/12/21 12:09:07;;;;;;;10.20;5.13;;;;;;;8.29;46.89;102412.31;3575126;40;20061;-66
2021/12/21 12:11:39;;;;;;;9.68;5.30;;;;;;;8.43;46.83;102399.44;3573455;40;20064;-66
2021/12/21 12:14:12;;;;;;;10.80;5.30;;;;;;;8.43;46.41;102404.78;3571836;40;20472;-65
2021/12/21 12:16:43;;;;;;;11.07;4.87;;;;;;;8.45;46.89;102392.25;3572739;40;20084;-66
2021/12/21 12:19:34;;;;;;;10.45;5.07;;;;;;;8.55;45.26;102393.75;3572806;40;20056;-65
2021/12/21 12:22:08;;;;;;;11.90;5.47;;;;;;;8.64;44.63;102395.28;3571263;40;20053;-66
2021/12/21 12:24:55;;;;;;;8.57;4.68;;;;;;;8.66;44.96;102384.50;3575919;40;20574;-66
2021/12/21 12:27:25;;;;;;;8.80;5.00;;;;;;;8.69;45.65;102395.13;3573539;40;20052;-66
2021/12/21 12:29:59;;;;;;;9.63;5.38;;;;;;;8.83;45.21;102390.28;3573586;40;20056;-66
2021/12/21 12:33:02;;;;;;;9.70;4.95;;;;;;;8.90;45.00;102399.00;3574390;40;20056;-66
2021/12/21 12:35:35;;;;;;;12.02;4.95;;;;;;;8.99;44.32;102399.63;3571106;40;20061;-65
2021/12/21 12:38:15;;;;;;;10.70;5.55;;;;;;;9.05;44.77;102391.38;3575124;40;20059;-66